createdAt,value
2022-11-22T00:01:00.051Z,94.65
2022-11-22T00:06:36.132Z,95.19
2022-11-22T00:09:24.572Z,95.72
2022-11-22T00:12:12.818Z,96.74
2022-11-22T00:17:48.817Z,98.10
2022-11-22T00:20:37.337Z,97.60
2022-11-22T00:23:25.843Z,97.50
2022-11-22T00:29:14.488Z,98.00
2022-11-22T00:34:52.292Z,98.16
2022-11-22T00:40:21.587Z,100.00
2022-11-22T00:45:52.752Z,100.00
2022-11-22T00:51:30.606Z,100.00
2022-11-22T00:57:02.887Z,100.00
2022-11-22T01:02:40.300Z,100.00
2022-11-22T01:05:29.551Z,100.00
2022-11-22T01:11:08.446Z,100.00
2022-11-22T01:16:45.907Z,100.00
2022-11-22T01:22:21.643Z,100.00
2022-11-22T01:27:53.291Z,100.00
2022-11-22T01:30:43.245Z,100.00
2022-11-22T01:36:19.328Z,100.00
2022-11-22T01:39:07.928Z,100.00
2022-11-22T01:45:43.727Z,100.00
2022-11-22T01:51:17.235Z,100.00
2022-11-22T01:54:07.828Z,100.00
2022-11-22T01:56:57.958Z,100.00
2022-11-22T02:02:27.887Z,100.00
2022-11-22T02:05:18.523Z,100.00
2022-11-22T02:10:58.957Z,99.95
2022-11-22T02:13:48.372Z,99.32
2022-11-22T02:19:31.376Z,99.33
2022-11-22T02:25:08.126Z,99.98
2022-11-22T02:27:59.858Z,99.44
2022-11-22T02:30:50.964Z,99.07
2022-11-22T02:36:23.299Z,100.00
2022-11-22T02:39:13.554Z,100.00
2022-11-22T02:47:31.649Z,100.00
2022-11-22T02:53:11.326Z,100.00
2022-11-22T02:56:02.220Z,100.00
2022-11-22T02:58:50.741Z,100.00
2022-11-22T03:01:39.338Z,100.00
2022-11-22T03:07:09.335Z,99.32
2022-11-22T03:12:44.894Z,98.92
2022-11-22T03:18:16.605Z,97.10
2022-11-22T03:23:52.998Z,94.86
2022-11-22T03:29:27.885Z,95.47
2022-11-22T03:35:19.153Z,96.59
2022-11-22T03:38:07.846Z,96.95
2022-11-22T03:40:56.399Z,97.12
2022-11-22T03:43:44.826Z,96.60
2022-11-22T03:49:20.981Z,96.17
2022-11-22T03:54:53.299Z,97.61
2022-11-22T04:00:25.324Z,97.05
2022-11-22T04:05:59.198Z,96.16
2022-11-22T04:11:30.325Z,97.26
2022-11-22T04:27:20.974Z,98.48
2022-11-22T04:36:45.051Z,96.03
2022-11-22T04:39:35.400Z,96.21
2022-11-22T04:45:11.488Z,96.98
2022-11-22T04:51:04.103Z,98.64
2022-11-22T04:56:43.558Z,98.80
2022-11-22T05:02:33.485Z,98.03
2022-11-22T05:08:03.593Z,98.43
2022-11-22T05:18:09.962Z,100.00
2022-11-22T05:21:00.697Z,99.10
2022-11-22T05:26:48.960Z,99.35
2022-11-22T05:32:24.690Z,98.74
2022-11-22T05:38:02.524Z,97.96
2022-11-22T05:40:50.739Z,97.25
2022-11-22T05:46:27.477Z,96.73
2022-11-22T05:52:04.333Z,97.12
2022-11-22T05:57:40.961Z,97.35
2022-11-22T06:00:30.109Z,97.72
2022-11-22T06:03:19.617Z,96.80
2022-11-22T06:06:08.494Z,97.55
2022-11-22T06:08:56.724Z,96.93
2022-11-22T06:14:32.185Z,97.67
2022-11-22T06:17:20.774Z,97.63
2022-11-22T06:20:11.411Z,97.22
2022-11-22T06:25:59.793Z,96.85
2022-11-22T06:31:37.725Z,96.42
2022-11-22T06:34:26.279Z,95.80
2022-11-22T06:39:58.684Z,97.12
2022-11-22T06:45:48.127Z,96.70
2022-11-22T06:48:38.698Z,95.74
2022-11-22T06:51:28.758Z,94.83
2022-11-22T06:54:19.803Z,95.32
2022-11-22T06:57:08.464Z,95.23
2022-11-22T07:02:50.142Z,93.54
2022-11-22T07:05:38.991Z,93.57
2022-11-22T07:08:27.339Z,92.91
2022-11-22T07:14:08.575Z,92.38
2022-11-22T07:16:58.124Z,91.70
2022-11-22T07:22:39.180Z,92.56
2022-11-22T07:28:11.052Z,92.29
2022-11-22T07:31:06.203Z,91.60
2022-11-22T07:33:58.424Z,92.04
2022-11-22T07:39:32.010Z,92.25
2022-11-22T07:45:17.823Z,91.85
2022-11-22T07:50:48.307Z,91.61
2022-11-22T07:56:18.526Z,90.83
2022-11-22T08:01:56.467Z,89.26
2022-11-22T08:07:30.395Z,88.78
2022-11-22T08:13:10.304Z,86.66
2022-11-22T08:18:52.291Z,85.96
2022-11-22T08:24:21.907Z,86.61
2022-11-22T08:29:55.875Z,86.31
2022-11-22T08:35:34.984Z,85.35
2022-11-22T08:41:13.014Z,84.43
2022-11-22T08:46:48.328Z,85.06
2022-11-22T08:52:36.440Z,85.00
2022-11-22T08:55:25.687Z,85.10
2022-11-22T09:01:11.993Z,85.41
2022-11-22T09:12:34.710Z,84.02
2022-11-22T09:18:06.624Z,83.80
2022-11-22T09:21:00.282Z,82.82
2022-11-22T09:26:49.288Z,81.33
2022-11-22T09:32:20.745Z,81.14
2022-11-22T09:40:39.039Z,79.41
2022-11-22T09:43:37.715Z,78.87
2022-11-22T09:49:40.406Z,78.54
2022-11-22T09:55:23.899Z,77.44
2022-11-22T10:01:07.983Z,76.79
2022-11-22T10:06:51.584Z,76.13
2022-11-22T10:12:31.250Z,74.59
2022-11-22T10:18:05.229Z,75.83
2022-11-22T10:23:37.940Z,74.41
2022-11-22T10:29:23.124Z,75.19
2022-11-22T10:40:53.066Z,74.03
2022-11-22T10:43:44.756Z,73.80
2022-11-22T10:49:23.843Z,73.00
2022-11-22T10:55:07.149Z,72.25
2022-11-22T11:03:41.406Z,69.66
2022-11-22T11:15:05.769Z,68.76
2022-11-22T11:23:22.446Z,69.66
2022-11-22T11:26:23.021Z,69.54
2022-11-22T11:32:21.853Z,67.96
2022-11-22T11:35:16.664Z,67.50
2022-11-22T11:38:05.081Z,68.59
2022-11-22T11:43:45.399Z,70.21
2022-11-22T11:49:32.490Z,69.47
2022-11-22T11:55:18.121Z,69.15
2022-11-22T11:58:17.471Z,69.55
2022-11-22T12:03:44.138Z,68.80
2022-11-22T12:09:28.711Z,70.47
2022-11-22T12:21:15.699Z,70.56
2022-11-22T12:27:00.871Z,69.83
2022-11-22T12:32:40.892Z,70.19
2022-11-22T12:41:20.696Z,70.10
2022-11-22T12:46:55.875Z,68.71
2022-11-22T12:52:29.932Z,68.31
2022-11-22T12:55:21.565Z,68.56
2022-11-22T13:01:21.889Z,66.77
2022-11-22T13:07:00.900Z,67.14
2022-11-22T13:09:53.697Z,66.03
2022-11-22T13:12:48.961Z,66.92
2022-11-22T13:18:46.999Z,68.05
2022-11-22T13:24:38.341Z,66.72
2022-11-22T13:30:26.906Z,66.44
2022-11-22T13:39:35.860Z,65.36
2022-11-22T13:45:43.329Z,66.34
2022-11-22T13:51:53.529Z,66.02
2022-11-22T13:57:40.649Z,73.40
2022-11-22T14:00:55.578Z,73.84
2022-11-22T14:03:45.520Z,72.32
2022-11-22T14:09:36.146Z,72.64
2022-11-22T14:18:45.409Z,69.51
2022-11-22T14:24:41.591Z,69.02
2022-11-22T14:30:21.221Z,68.68
2022-11-22T14:36:21.670Z,67.67
2022-11-22T14:39:49.235Z,68.22
2022-11-22T14:45:58.781Z,68.05
2022-11-22T14:48:54.068Z,68.35
2022-11-22T14:57:32.142Z,69.66
2022-11-22T15:03:42.616Z,70.32
2022-11-22T15:10:12.208Z,68.97
2022-11-22T16:01:19.030Z,70.17
2022-11-22T16:03:59.270Z,69.46
2022-11-22T16:06:50.306Z,69.86
2022-11-22T16:09:40.917Z,68.65
2022-11-22T16:12:33.021Z,68.36
2022-11-22T16:18:24.367Z,69.94
2022-11-22T16:24:20.223Z,71.64
2022-11-22T16:29:56.864Z,70.42
2022-11-22T16:35:40.439Z,71.77
2022-11-22T16:38:29.181Z,71.93
2022-11-22T16:41:25.542Z,71.73
2022-11-22T16:44:14.861Z,72.18
2022-11-22T16:50:06.766Z,74.94
2022-11-22T16:55:44.006Z,75.07
2022-11-22T16:58:33.515Z,75.51
2022-11-22T17:01:32.751Z,74.89
2022-11-22T17:07:10.785Z,73.98
2022-11-22T17:10:01.896Z,75.03
2022-11-22T17:12:50.435Z,74.95
2022-11-22T17:18:31.030Z,74.66
2022-11-22T17:21:24.802Z,74.25
2022-11-22T17:26:58.046Z,73.74
2022-11-22T17:32:32.438Z,75.64
2022-11-22T17:35:21.698Z,75.48
2022-11-22T17:41:01.094Z,74.34
2022-11-22T17:46:39.731Z,74.37
2022-11-22T17:49:28.567Z,74.95
2022-11-22T17:52:17.808Z,75.11
2022-11-22T17:57:57.078Z,72.92
2022-11-22T18:03:34.343Z,74.59
2022-11-22T18:09:07.587Z,74.73
2022-11-22T18:14:40.900Z,75.14
2022-11-22T18:20:37.848Z,74.89
2022-11-22T18:34:42.582Z,76.09
2022-11-22T18:40:21.310Z,76.10
2022-11-22T18:43:10.190Z,76.14
2022-11-22T18:46:02.868Z,76.11
2022-11-22T18:48:51.145Z,76.00
2022-11-22T18:54:24.360Z,76.26
2022-11-22T18:57:19.641Z,76.19
2022-11-22T19:00:15.100Z,75.84
2022-11-22T19:03:03.882Z,76.82
2022-11-22T19:05:51.973Z,76.85
2022-11-22T19:08:48.852Z,76.44
2022-11-22T19:11:39.895Z,77.03
2022-11-22T19:14:29.782Z,77.05
2022-11-22T19:17:24.678Z,77.06
2022-11-22T19:20:53.677Z,76.09
2022-11-22T19:29:14.667Z,76.67
2022-11-22T19:32:14.621Z,76.75
2022-11-22T19:35:16.622Z,76.58
2022-11-22T19:38:09.254Z,76.34
2022-11-22T19:46:30.956Z,74.62
2022-11-22T19:52:15.512Z,75.19
2022-11-22T19:58:37.914Z,75.82
2022-11-22T20:04:23.618Z,74.58
2022-11-22T20:10:10.406Z,75.75
2022-11-22T20:15:40.545Z,76.97
2022-11-22T20:21:27.029Z,76.83
2022-11-22T20:24:23.217Z,76.31
2022-11-22T20:27:13.725Z,76.27
2022-11-22T20:33:01.913Z,76.40
2022-11-22T20:42:05.871Z,75.82
2022-11-22T20:44:40.953Z,76.16
2022-11-22T20:47:30.559Z,75.91
2022-11-22T20:53:00.794Z,75.00
2022-11-22T20:55:51.601Z,76.17
2022-11-22T21:01:28.580Z,76.65
2022-11-22T21:06:58.709Z,76.73
2022-11-22T21:12:31.986Z,78.09
2022-11-22T21:18:25.604Z,78.68
2022-11-22T21:21:17.653Z,79.30
2022-11-22T21:26:49.034Z,78.77
2022-11-22T21:32:19.940Z,79.86
2022-11-22T21:38:13.367Z,79.31
2022-11-22T21:43:50.817Z,79.73
2022-11-22T21:49:23.506Z,78.77
2022-11-22T22:05:50.265Z,79.88
2022-11-22T22:11:26.224Z,81.01
2022-11-22T22:16:57.042Z,80.68
2022-11-22T22:22:34.718Z,79.66
2022-11-22T22:25:23.466Z,79.52
2022-11-22T22:28:12.594Z,79.73
2022-11-22T22:31:08.274Z,79.46
2022-11-22T22:38:45.255Z,79.70
2022-11-22T22:41:33.951Z,78.99
2022-11-22T22:44:24.508Z,80.32
2022-11-22T22:49:58.160Z,79.49
2022-11-22T22:52:49.392Z,79.96
2022-11-22T22:58:23.351Z,80.24
2022-11-22T23:01:14.592Z,80.30
2022-11-22T23:06:41.581Z,80.11
2022-11-22T23:09:32.642Z,80.11
2022-11-22T23:12:21.383Z,80.22
2022-11-22T23:15:12.962Z,80.19
2022-11-22T23:20:42.953Z,80.49
2022-11-22T23:23:32.610Z,80.78
2022-11-22T23:26:20.871Z,79.98
2022-11-22T23:37:19.589Z,80.83
2022-11-22T23:43:12.252Z,79.48
2022-11-22T23:48:46.951Z,79.92
2022-11-22T23:54:17.978Z,81.66
2022-11-22T23:57:06.227Z,81.63
2022-11-22T23:59:54.795Z,81.63
